sensor_id;sensor_type;location;lat;lon;timestamp;P1;durP1;ratioP1;P2;durP2;ratioP2
43998;SDS011;51319;52.162;5.302;2022-11-15T00:01:28;72.05;;;29.80;;
43998;SDS011;51319;52.162;5.302;2022-11-15T00:03:55;70.50;;;30.35;;
43998;SDS011;51319;52.162;5.302;2022-11-15T00:06:22;68.25;;;30.23;;
43998;SDS011;51319;52.162;5.302;2022-11-15T00:08:49;71.50;;;30.00;;
43998;SDS011;51319;52.162;5.302;2022-11-15T00:11:16;65.82;;;28.65;;
43998;SDS011;51319;52.162;5.302;2022-11-15T00:13:43;71.93;;;30.90;;
43998;SDS011;51319;52.162;5.302;2022-11-15T00:16:09;70.53;;;29.85;;
43998;SDS011;51319;52.162;5.302;2022-11-15T00:18:37;77.68;;;30.88;;
43998;SDS011;51319;52.162;5.302;2022-11-15T00:21:05;60.72;;;28.42;;
43998;SDS011;51319;52.162;5.302;2022-11-15T00:23:35;79.88;;;32.38;;
43998;SDS011;51319;52.162;5.302;2022-11-15T00:26:02;77.93;;;31.58;;
43998;SDS011;51319;52.162;5.302;2022-11-15T00:28:30;69.10;;;30.15;;
43998;SDS011;51319;52.162;5.302;2022-11-15T00:31:04;81.03;;;32.13;;
43998;SDS011;51319;52.162;5.302;2022-11-15T00:33:35;81.53;;;31.77;;
43998;SDS011;51319;52.162;5.302;2022-11-15T00:36:02;98.95;;;34.75;;
43998;SDS011;51319;52.162;5.302;2022-11-15T00:38:32;84.22;;;34.20;;
43998;SDS011;51319;52.162;5.302;2022-11-15T00:40:59;98.53;;;36.03;;
43998;SDS011;51319;52.162;5.302;2022-11-15T00:43:34;106.53;;;36.40;;
43998;SDS011;51319;52.162;5.302;2022-11-15T00:46:01;100.50;;;32.42;;
43998;SDS011;51319;52.162;5.302;2022-11-15T00:48:28;98.65;;;36.97;;
43998;SDS011;51319;52.162;5.302;2022-11-15T00:50:56;106.72;;;38.72;;
43998;SDS011;51319;52.162;5.302;2022-11-15T00:53:24;108.43;;;39.20;;
43998;SDS011;51319;52.162;5.302;2022-11-15T00:55:51;101.30;;;35.92;;
43998;SDS011;51319;52.162;5.302;2022-11-15T00:58:18;99.35;;;38.40;;
43998;SDS011;51319;52.162;5.302;2022-11-15T01:00:45;115.30;;;39.80;;
43998;SDS011;51319;52.162;5.302;2022-11-15T01:03:12;118.90;;;40.38;;
43998;SDS011;51319;52.162;5.302;2022-11-15T01:05:39;119.00;;;39.83;;
43998;SDS011;51319;52.162;5.302;2022-11-15T01:08:06;114.70;;;37.17;;
43998;SDS011;51319;52.162;5.302;2022-11-15T01:10:37;109.97;;;37.92;;
43998;SDS011;51319;52.162;5.302;2022-11-15T01:13:04;102.38;;;38.90;;
43998;SDS011;51319;52.162;5.302;2022-11-15T01:15:31;94.35;;;36.83;;
43998;SDS011;51319;52.162;5.302;2022-11-15T01:17:57;125.72;;;42.55;;
43998;SDS011;51319;52.162;5.302;2022-11-15T01:20:24;128.32;;;41.97;;
43998;SDS011;51319;52.162;5.302;2022-11-15T01:22:51;114.43;;;40.83;;
43998;SDS011;51319;52.162;5.302;2022-11-15T01:25:18;106.32;;;37.50;;
43998;SDS011;51319;52.162;5.302;2022-11-15T01:27:44;116.07;;;41.15;;
43998;SDS011;51319;52.162;5.302;2022-11-15T01:30:11;139.75;;;45.65;;
43998;SDS011;51319;52.162;5.302;2022-11-15T01:32:38;116.88;;;40.60;;
43998;SDS011;51319;52.162;5.302;2022-11-15T01:35:05;123.05;;;43.10;;
43998;SDS011;51319;52.162;5.302;2022-11-15T01:37:32;133.07;;;42.75;;
43998;SDS011;51319;52.162;5.302;2022-11-15T01:39:59;129.73;;;43.90;;
43998;SDS011;51319;52.162;5.302;2022-11-15T01:42:26;107.53;;;37.25;;
43998;SDS011;51319;52.162;5.302;2022-11-15T01:44:53;126.75;;;43.72;;
43998;SDS011;51319;52.162;5.302;2022-11-15T01:47:33;120.20;;;43.90;;
43998;SDS011;51319;52.162;5.302;2022-11-15T01:50:04;134.55;;;42.90;;
43998;SDS011;51319;52.162;5.302;2022-11-15T01:52:36;138.52;;;47.20;;
43998;SDS011;51319;52.162;5.302;2022-11-15T01:57:35;152.50;;;45.92;;
43998;SDS011;51319;52.162;5.302;2022-11-15T02:00:03;124.68;;;45.25;;
43998;SDS011;51319;52.162;5.302;2022-11-15T02:02:31;128.02;;;43.88;;
43998;SDS011;51319;52.162;5.302;2022-11-15T02:04:59;133.85;;;46.15;;
43998;SDS011;51319;52.162;5.302;2022-11-15T02:07:26;142.20;;;46.58;;
43998;SDS011;51319;52.162;5.302;2022-11-15T02:09:54;147.98;;;48.63;;
43998;SDS011;51319;52.162;5.302;2022-11-15T02:12:24;148.40;;;47.67;;
43998;SDS011;51319;52.162;5.302;2022-11-15T02:14:52;139.65;;;50.08;;
43998;SDS011;51319;52.162;5.302;2022-11-15T02:34:25;145.45;;;46.85;;
43998;SDS011;51319;52.162;5.302;2022-11-15T02:39:44;108.40;;;41.55;;
43998;SDS011;51319;52.162;5.302;2022-11-15T02:42:21;137.25;;;46.67;;
43998;SDS011;51319;52.162;5.302;2022-11-15T02:45:09;129.25;;;45.10;;
43998;SDS011;51319;52.162;5.302;2022-11-15T02:47:43;126.80;;;48.75;;
43998;SDS011;51319;52.162;5.302;2022-11-15T02:50:16;124.45;;;42.15;;
43998;SDS011;51319;52.162;5.302;2022-11-15T02:52:46;129.10;;;45.50;;
43998;SDS011;51319;52.162;5.302;2022-11-15T03:01:03;148.48;;;47.50;;
43998;SDS011;51319;52.162;5.302;2022-11-15T03:06:32;141.85;;;48.95;;
43998;SDS011;51319;52.162;5.302;2022-11-15T03:09:10;154.43;;;47.08;;
43998;SDS011;51319;52.162;5.302;2022-11-15T03:11:41;145.02;;;46.65;;
43998;SDS011;51319;52.162;5.302;2022-11-15T03:14:34;164.45;;;50.53;;
43998;SDS011;51319;52.162;5.302;2022-11-15T03:17:26;145.57;;;49.08;;
43998;SDS011;51319;52.162;5.302;2022-11-15T03:20:00;158.48;;;50.15;;
43998;SDS011;51319;52.162;5.302;2022-11-15T03:22:32;133.25;;;45.65;;
43998;SDS011;51319;52.162;5.302;2022-11-15T03:25:04;146.20;;;47.63;;
43998;SDS011;51319;52.162;5.302;2022-11-15T03:27:41;147.77;;;51.47;;
43998;SDS011;51319;52.162;5.302;2022-11-15T03:30:12;161.35;;;52.92;;
43998;SDS011;51319;52.162;5.302;2022-11-15T03:32:41;160.65;;;51.78;;
43998;SDS011;51319;52.162;5.302;2022-11-15T03:35:14;163.73;;;53.28;;
43998;SDS011;51319;52.162;5.302;2022-11-15T03:38:06;157.63;;;50.42;;
43998;SDS011;51319;52.162;5.302;2022-11-15T03:41:22;154.27;;;49.42;;
43998;SDS011;51319;52.162;5.302;2022-11-15T03:43:43;174.00;;;50.72;;
43998;SDS011;51319;52.162;5.302;2022-11-15T03:46:36;150.75;;;48.92;;
43998;SDS011;51319;52.162;5.302;2022-11-15T03:49:10;165.63;;;52.10;;
43998;SDS011;51319;52.162;5.302;2022-11-15T03:51:59;134.85;;;45.03;;
43998;SDS011;51319;52.162;5.302;2022-11-15T03:54:27;153.70;;;50.30;;
43998;SDS011;51319;52.162;5.302;2022-11-15T03:56:54;128.82;;;48.25;;
43998;SDS011;51319;52.162;5.302;2022-11-15T03:59:21;154.23;;;49.22;;
43998;SDS011;51319;52.162;5.302;2022-11-15T04:01:48;128.50;;;47.13;;
43998;SDS011;51319;52.162;5.302;2022-11-15T04:04:15;154.13;;;51.55;;
43998;SDS011;51319;52.162;5.302;2022-11-15T04:06:42;127.50;;;48.78;;
43998;SDS011;51319;52.162;5.302;2022-11-15T04:09:08;109.88;;;41.50;;
43998;SDS011;51319;52.162;5.302;2022-11-15T04:11:35;121.60;;;44.85;;
43998;SDS011;51319;52.162;5.302;2022-11-15T04:14:02;116.50;;;44.33;;
43998;SDS011;51319;52.162;5.302;2022-11-15T04:16:29;123.20;;;47.15;;
43998;SDS011;51319;52.162;5.302;2022-11-15T04:18:56;117.70;;;45.72;;
43998;SDS011;51319;52.162;5.302;2022-11-15T04:21:41;126.00;;;46.60;;
43998;SDS011;51319;52.162;5.302;2022-11-15T04:24:27;118.90;;;47.45;;
43998;SDS011;51319;52.162;5.302;2022-11-15T04:26:53;109.68;;;44.72;;
43998;SDS011;51319;52.162;5.302;2022-11-15T04:29:20;118.22;;;45.42;;
43998;SDS011;51319;52.162;5.302;2022-11-15T04:32:03;107.13;;;43.78;;
43998;SDS011;51319;52.162;5.302;2022-11-15T04:34:31;111.80;;;43.13;;
43998;SDS011;51319;52.162;5.302;2022-11-15T04:36:58;100.70;;;38.15;;
43998;SDS011;51319;52.162;5.302;2022-11-15T04:39:42;118.90;;;45.88;;
43998;SDS011;51319;52.162;5.302;2022-11-15T04:42:11;114.80;;;44.58;;
43998;SDS011;51319;52.162;5.302;2022-11-15T04:44:38;117.38;;;43.67;;
43998;SDS011;51319;52.162;5.302;2022-11-15T04:47:05;106.97;;;45.75;;
43998;SDS011;51319;52.162;5.302;2022-11-15T04:49:32;109.80;;;48.03;;
43998;SDS011;51319;52.162;5.302;2022-11-15T04:51:59;109.78;;;43.78;;
43998;SDS011;51319;52.162;5.302;2022-11-15T04:54:26;103.50;;;45.00;;
43998;SDS011;51319;52.162;5.302;2022-11-15T04:56:52;110.53;;;44.28;;
43998;SDS011;51319;52.162;5.302;2022-11-15T04:59:19;112.93;;;43.95;;
43998;SDS011;51319;52.162;5.302;2022-11-15T05:01:46;108.20;;;42.83;;
43998;SDS011;51319;52.162;5.302;2022-11-15T05:04:16;113.45;;;41.97;;
43998;SDS011;51319;52.162;5.302;2022-11-15T05:06:46;98.53;;;42.10;;
43998;SDS011;51319;52.162;5.302;2022-11-15T05:09:14;94.63;;;41.03;;
43998;SDS011;51319;52.162;5.302;2022-11-15T05:11:41;98.30;;;39.47;;
43998;SDS011;51319;52.162;5.302;2022-11-15T05:14:08;99.38;;;41.13;;
43998;SDS011;51319;52.162;5.302;2022-11-15T05:16:35;111.88;;;40.97;;
43998;SDS011;51319;52.162;5.302;2022-11-15T05:19:03;103.40;;;39.40;;
43998;SDS011;51319;52.162;5.302;2022-11-15T05:21:30;92.15;;;37.03;;
43998;SDS011;51319;52.162;5.302;2022-11-15T05:23:57;82.60;;;36.42;;
43998;SDS011;51319;52.162;5.302;2022-11-15T05:26:24;89.30;;;37.63;;
43998;SDS011;51319;52.162;5.302;2022-11-15T05:28:52;96.30;;;40.78;;
43998;SDS011;51319;52.162;5.302;2022-11-15T05:31:22;83.47;;;38.00;;
43998;SDS011;51319;52.162;5.302;2022-11-15T05:33:50;76.82;;;34.03;;
43998;SDS011;51319;52.162;5.302;2022-11-15T05:36:29;86.85;;;37.80;;
43998;SDS011;51319;52.162;5.302;2022-11-15T05:41:41;79.78;;;31.80;;
43998;SDS011;51319;52.162;5.302;2022-11-15T05:44:16;73.22;;;33.10;;
43998;SDS011;51319;52.162;5.302;2022-11-15T05:46:46;74.40;;;34.08;;
43998;SDS011;51319;52.162;5.302;2022-11-15T05:49:17;75.47;;;34.42;;
43998;SDS011;51319;52.162;5.302;2022-11-15T05:51:47;75.40;;;35.85;;
43998;SDS011;51319;52.162;5.302;2022-11-15T05:54:15;83.95;;;34.83;;
43998;SDS011;51319;52.162;5.302;2022-11-15T05:56:43;77.40;;;35.47;;
43998;SDS011;51319;52.162;5.302;2022-11-15T05:59:10;80.35;;;36.33;;
43998;SDS011;51319;52.162;5.302;2022-11-15T06:01:41;66.18;;;30.48;;
43998;SDS011;51319;52.162;5.302;2022-11-15T06:04:09;71.57;;;33.88;;
43998;SDS011;51319;52.162;5.302;2022-11-15T06:06:36;68.68;;;32.30;;
43998;SDS011;51319;52.162;5.302;2022-11-15T06:09:03;75.13;;;34.40;;
43998;SDS011;51319;52.162;5.302;2022-11-15T06:11:30;76.22;;;36.55;;
43998;SDS011;51319;52.162;5.302;2022-11-15T06:13:57;77.18;;;37.65;;
43998;SDS011;51319;52.162;5.302;2022-11-15T06:16:23;68.03;;;33.88;;
43998;SDS011;51319;52.162;5.302;2022-11-15T06:18:53;77.82;;;34.63;;
43998;SDS011;51319;52.162;5.302;2022-11-15T06:21:20;71.88;;;33.83;;
43998;SDS011;51319;52.162;5.302;2022-11-15T06:23:47;81.43;;;39.22;;
43998;SDS011;51319;52.162;5.302;2022-11-15T06:26:18;82.82;;;36.33;;
43998;SDS011;51319;52.162;5.302;2022-11-15T06:28:45;83.82;;;38.67;;
43998;SDS011;51319;52.162;5.302;2022-11-15T06:31:14;76.20;;;36.65;;
43998;SDS011;51319;52.162;5.302;2022-11-15T06:33:41;88.25;;;37.97;;
43998;SDS011;51319;52.162;5.302;2022-11-15T06:36:09;75.72;;;37.13;;
43998;SDS011;51319;52.162;5.302;2022-11-15T06:38:44;82.75;;;35.17;;
43998;SDS011;51319;52.162;5.302;2022-11-15T06:41:11;78.28;;;35.33;;
43998;SDS011;51319;52.162;5.302;2022-11-15T06:43:39;79.95;;;37.03;;
43998;SDS011;51319;52.162;5.302;2022-11-15T06:46:07;85.30;;;42.95;;
43998;SDS011;51319;52.162;5.302;2022-11-15T06:48:36;82.82;;;36.17;;
43998;SDS011;51319;52.162;5.302;2022-11-15T06:51:03;92.80;;;40.50;;
43998;SDS011;51319;52.162;5.302;2022-11-15T06:53:31;83.78;;;38.35;;
43998;SDS011;51319;52.162;5.302;2022-11-15T06:56:00;72.95;;;35.75;;
43998;SDS011;51319;52.162;5.302;2022-11-15T06:58:28;85.88;;;36.47;;
43998;SDS011;51319;52.162;5.302;2022-11-15T07:01:03;86.80;;;37.00;;
43998;SDS011;51319;52.162;5.302;2022-11-15T07:03:36;79.80;;;37.85;;
43998;SDS011;51319;52.162;5.302;2022-11-15T07:06:05;80.75;;;37.58;;
43998;SDS011;51319;52.162;5.302;2022-11-15T07:08:33;87.13;;;38.10;;
43998;SDS011;51319;52.162;5.302;2022-11-15T07:11:02;80.85;;;36.67;;
43998;SDS011;51319;52.162;5.302;2022-11-15T07:13:31;89.78;;;37.30;;
43998;SDS011;51319;52.162;5.302;2022-11-15T07:16:07;85.25;;;37.83;;
43998;SDS011;51319;52.162;5.302;2022-11-15T07:18:36;89.57;;;39.10;;
43998;SDS011;51319;52.162;5.302;2022-11-15T07:21:05;85.85;;;38.85;;
43998;SDS011;51319;52.162;5.302;2022-11-15T07:23:36;81.32;;;37.55;;
43998;SDS011;51319;52.162;5.302;2022-11-15T07:26:04;84.47;;;37.38;;
43998;SDS011;51319;52.162;5.302;2022-11-15T07:28:33;110.97;;;41.70;;
43998;SDS011;51319;52.162;5.302;2022-11-15T07:31:03;77.28;;;32.53;;
43998;SDS011;51319;52.162;5.302;2022-11-15T07:33:32;77.32;;;34.50;;
43998;SDS011;51319;52.162;5.302;2022-11-15T07:36:00;95.53;;;38.17;;
43998;SDS011;51319;52.162;5.302;2022-11-15T07:38:28;85.13;;;35.65;;
43998;SDS011;51319;52.162;5.302;2022-11-15T07:40:59;81.07;;;34.80;;
43998;SDS011;51319;52.162;5.302;2022-11-15T07:43:28;105.40;;;56.15;;
43998;SDS011;51319;52.162;5.302;2022-11-15T07:45:56;80.28;;;35.78;;
43998;SDS011;51319;52.162;5.302;2022-11-15T07:48:25;87.07;;;38.42;;
43998;SDS011;51319;52.162;5.302;2022-11-15T07:51:05;89.18;;;37.13;;
43998;SDS011;51319;52.162;5.302;2022-11-15T07:53:40;86.40;;;35.97;;
43998;SDS011;51319;52.162;5.302;2022-11-15T07:56:08;75.45;;;32.72;;
43998;SDS011;51319;52.162;5.302;2022-11-15T07:58:36;82.03;;;35.15;;
43998;SDS011;51319;52.162;5.302;2022-11-15T08:01:03;74.20;;;32.78;;
43998;SDS011;51319;52.162;5.302;2022-11-15T08:03:36;76.03;;;32.47;;
43998;SDS011;51319;52.162;5.302;2022-11-15T08:06:03;71.72;;;32.13;;
43998;SDS011;51319;52.162;5.302;2022-11-15T08:08:33;75.30;;;32.67;;
43998;SDS011;51319;52.162;5.302;2022-11-15T08:11:00;67.07;;;30.05;;
43998;SDS011;51319;52.162;5.302;2022-11-15T08:13:28;70.00;;;30.38;;
43998;SDS011;51319;52.162;5.302;2022-11-15T08:15:59;70.68;;;29.75;;
43998;SDS011;51319;52.162;5.302;2022-11-15T08:18:26;68.68;;;28.92;;
43998;SDS011;51319;52.162;5.302;2022-11-15T08:20:57;57.95;;;28.42;;
43998;SDS011;51319;52.162;5.302;2022-11-15T08:23:26;62.25;;;28.05;;
43998;SDS011;51319;52.162;5.302;2022-11-15T08:26:03;53.08;;;27.30;;
43998;SDS011;51319;52.162;5.302;2022-11-15T08:28:31;58.22;;;26.85;;
43998;SDS011;51319;52.162;5.302;2022-11-15T08:30:59;58.22;;;25.33;;
43998;SDS011;51319;52.162;5.302;2022-11-15T08:33:26;52.65;;;25.40;;
43998;SDS011;51319;52.162;5.302;2022-11-15T08:35:57;48.65;;;23.35;;
43998;SDS011;51319;52.162;5.302;2022-11-15T08:38:25;54.63;;;24.05;;
43998;SDS011;51319;52.162;5.302;2022-11-15T08:41:03;46.13;;;23.27;;
43998;SDS011;51319;52.162;5.302;2022-11-15T08:43:32;35.03;;;21.02;;
43998;SDS011;51319;52.162;5.302;2022-11-15T08:46:02;42.65;;;22.05;;
43998;SDS011;51319;52.162;5.302;2022-11-15T08:48:29;38.67;;;20.65;;
43998;SDS011;51319;52.162;5.302;2022-11-15T08:50:57;48.88;;;21.30;;
43998;SDS011;51319;52.162;5.302;2022-11-15T08:53:24;38.55;;;18.30;;
43998;SDS011;51319;52.162;5.302;2022-11-15T08:55:51;35.28;;;18.30;;
43998;SDS011;51319;52.162;5.302;2022-11-15T08:58:18;33.97;;;18.30;;
43998;SDS011;51319;52.162;5.302;2022-11-15T09:00:45;31.73;;;18.40;;
43998;SDS011;51319;52.162;5.302;2022-11-15T09:03:12;29.15;;;16.13;;
43998;SDS011;51319;52.162;5.302;2022-11-15T09:05:38;29.45;;;16.48;;
43998;SDS011;51319;52.162;5.302;2022-11-15T09:08:05;30.20;;;16.23;;
43998;SDS011;51319;52.162;5.302;2022-11-15T09:10:55;28.55;;;14.65;;
43998;SDS011;51319;52.162;5.302;2022-11-15T09:13:22;28.17;;;13.50;;
43998;SDS011;51319;52.162;5.302;2022-11-15T09:15:49;19.40;;;12.98;;
43998;SDS011;51319;52.162;5.302;2022-11-15T09:18:16;24.38;;;13.23;;
43998;SDS011;51319;52.162;5.302;2022-11-15T09:20:43;19.85;;;11.73;;
43998;SDS011;51319;52.162;5.302;2022-11-15T09:23:10;23.30;;;11.90;;
43998;SDS011;51319;52.162;5.302;2022-11-15T09:25:37;22.38;;;11.90;;
43998;SDS011;51319;52.162;5.302;2022-11-15T09:28:05;19.83;;;10.60;;
43998;SDS011;51319;52.162;5.302;2022-11-15T09:30:34;18.00;;;10.98;;
43998;SDS011;51319;52.162;5.302;2022-11-15T09:33:10;16.55;;;10.38;;
43998;SDS011;51319;52.162;5.302;2022-11-15T09:35:38;24.90;;;11.50;;
43998;SDS011;51319;52.162;5.302;2022-11-15T09:38:07;18.95;;;10.27;;
43998;SDS011;51319;52.162;5.302;2022-11-15T09:40:36;22.75;;;10.40;;
43998;SDS011;51319;52.162;5.302;2022-11-15T09:43:49;17.83;;;9.07;;
43998;SDS011;51319;52.162;5.302;2022-11-15T09:51:14;14.82;;;8.50;;
43998;SDS011;51319;52.162;5.302;2022-11-15T10:00:09;12.98;;;6.55;;
43998;SDS011;51319;52.162;5.302;2022-11-15T10:03:34;12.63;;;5.95;;
43998;SDS011;51319;52.162;5.302;2022-11-15T10:06:04;12.02;;;6.88;;
43998;SDS011;51319;52.162;5.302;2022-11-15T10:09:15;16.65;;;5.88;;
43998;SDS011;51319;52.162;5.302;2022-11-15T10:11:27;12.15;;;6.72;;
43998;SDS011;51319;52.162;5.302;2022-11-15T10:22:31;6.90;;;3.65;;
43998;SDS011;51319;52.162;5.302;2022-11-15T10:25:17;8.02;;;4.70;;
43998;SDS011;51319;52.162;5.302;2022-11-15T10:28:21;7.43;;;4.78;;
43998;SDS011;51319;52.162;5.302;2022-11-15T10:30:43;7.82;;;4.70;;
43998;SDS011;51319;52.162;5.302;2022-11-15T10:36:14;7.22;;;4.32;;
43998;SDS011;51319;52.162;5.302;2022-11-15T10:38:52;5.65;;;3.65;;
43998;SDS011;51319;52.162;5.302;2022-11-15T10:41:22;6.75;;;3.47;;
43998;SDS011;51319;52.162;5.302;2022-11-15T10:47:20;6.32;;;3.42;;
43998;SDS011;51319;52.162;5.302;2022-11-15T10:50:01;6.40;;;3.00;;
43998;SDS011;51319;52.162;5.302;2022-11-15T10:52:48;6.70;;;2.83;;
43998;SDS011;51319;52.162;5.302;2022-11-15T10:57:47;5.85;;;2.70;;
43998;SDS011;51319;52.162;5.302;2022-11-15T11:02:57;5.75;;;2.35;;
43998;SDS011;51319;52.162;5.302;2022-11-15T11:05:34;6.40;;;2.75;;
43998;SDS011;51319;52.162;5.302;2022-11-15T11:08:20;5.28;;;2.50;;
43998;SDS011;51319;52.162;5.302;2022-11-15T11:10:53;7.35;;;4.30;;
43998;SDS011;51319;52.162;5.302;2022-11-15T11:13:32;4.78;;;2.63;;
43998;SDS011;51319;52.162;5.302;2022-11-15T11:21:51;5.63;;;1.77;;
43998;SDS011;51319;52.162;5.302;2022-11-15T11:24:40;8.15;;;1.70;;
43998;SDS011;51319;52.162;5.302;2022-11-15T11:27:25;2.92;;;1.60;;
43998;SDS011;51319;52.162;5.302;2022-11-15T11:46:59;4.32;;;1.80;;
43998;SDS011;51319;52.162;5.302;2022-11-15T12:00:22;6.63;;;1.73;;
43998;SDS011;51319;52.162;5.302;2022-11-15T12:06:26;4.80;;;1.27;;
43998;SDS011;51319;52.162;5.302;2022-11-15T12:11:50;3.67;;;0.93;;
43998;SDS011;51319;52.162;5.302;2022-11-15T12:17:16;6.35;;;1.40;;
43998;SDS011;51319;52.162;5.302;2022-11-15T12:19:47;6.10;;;0.98;;
43998;SDS011;51319;52.162;5.302;2022-11-15T12:25:51;9.75;;;1.35;;
43998;SDS011;51319;52.162;5.302;2022-11-15T12:28:45;7.15;;;1.17;;
43998;SDS011;51319;52.162;5.302;2022-11-15T12:31:38;3.70;;;1.30;;
43998;SDS011;51319;52.162;5.302;2022-11-15T12:36:49;7.90;;;1.92;;
43998;SDS011;51319;52.162;5.302;2022-11-15T12:39:18;21.80;;;9.43;;
43998;SDS011;51319;52.162;5.302;2022-11-15T12:45:23;4.95;;;1.58;;
43998;SDS011;51319;52.162;5.302;2022-11-15T12:47:25;7.95;;;1.77;;
43998;SDS011;51319;52.162;5.302;2022-11-15T12:49:53;5.22;;;1.40;;
43998;SDS011;51319;52.162;5.302;2022-11-15T12:52:20;8.75;;;1.27;;
43998;SDS011;51319;52.162;5.302;2022-11-15T12:54:51;4.18;;;1.88;;
43998;SDS011;51319;52.162;5.302;2022-11-15T12:57:29;3.88;;;0.80;;
43998;SDS011;51319;52.162;5.302;2022-11-15T12:59:59;4.97;;;1.33;;
43998;SDS011;51319;52.162;5.302;2022-11-15T13:02:39;9.38;;;1.35;;
43998;SDS011;51319;52.162;5.302;2022-11-15T13:07:56;5.30;;;1.38;;
43998;SDS011;51319;52.162;5.302;2022-11-15T13:10:30;5.68;;;1.50;;
43998;SDS011;51319;52.162;5.302;2022-11-15T13:15:31;6.22;;;1.13;;
43998;SDS011;51319;52.162;5.302;2022-11-15T13:18:24;8.68;;;1.20;;
43998;SDS011;51319;52.162;5.302;2022-11-15T13:20:55;3.72;;;1.25;;
43998;SDS011;51319;52.162;5.302;2022-11-15T13:23:27;5.90;;;1.48;;
43998;SDS011;51319;52.162;5.302;2022-11-15T13:25:57;8.43;;;1.55;;
43998;SDS011;51319;52.162;5.302;2022-11-15T13:28:44;5.30;;;1.40;;
43998;SDS011;51319;52.162;5.302;2022-11-15T13:33:57;4.65;;;1.38;;
43998;SDS011;51319;52.162;5.302;2022-11-15T13:36:28;10.23;;;1.63;;
43998;SDS011;51319;52.162;5.302;2022-11-15T13:41:34;7.80;;;1.70;;
43998;SDS011;51319;52.162;5.302;2022-11-15T13:44:02;7.13;;;2.65;;
43998;SDS011;51319;52.162;5.302;2022-11-15T13:46:31;5.38;;;1.52;;
43998;SDS011;51319;52.162;5.302;2022-11-15T13:49:05;5.50;;;1.70;;
43998;SDS011;51319;52.162;5.302;2022-11-15T13:51:51;4.10;;;1.33;;
43998;SDS011;51319;52.162;5.302;2022-11-15T13:57:15;4.90;;;1.65;;
43998;SDS011;51319;52.162;5.302;2022-11-15T13:59:57;7.47;;;2.13;;
43998;SDS011;51319;52.162;5.302;2022-11-15T14:02:32;6.45;;;1.60;;
43998;SDS011;51319;52.162;5.302;2022-11-15T14:05:14;7.63;;;1.85;;
43998;SDS011;51319;52.162;5.302;2022-11-15T14:08:32;5.03;;;1.60;;
43998;SDS011;51319;52.162;5.302;2022-11-15T14:10:41;10.25;;;3.40;;
43998;SDS011;51319;52.162;5.302;2022-11-15T14:13:27;6.63;;;1.50;;
43998;SDS011;51319;52.162;5.302;2022-11-15T14:18:49;4.63;;;1.67;;
43998;SDS011;51319;52.162;5.302;2022-11-15T14:21:17;6.38;;;1.65;;
43998;SDS011;51319;52.162;5.302;2022-11-15T14:23:45;5.75;;;2.00;;
43998;SDS011;51319;52.162;5.302;2022-11-15T14:28:55;8.35;;;1.70;;
43998;SDS011;51319;52.162;5.302;2022-11-15T14:31:23;4.22;;;1.77;;
43998;SDS011;51319;52.162;5.302;2022-11-15T14:33:49;5.75;;;2.05;;
43998;SDS011;51319;52.162;5.302;2022-11-15T14:38:46;5.47;;;1.80;;
43998;SDS011;51319;52.162;5.302;2022-11-15T14:41:21;6.93;;;1.50;;
43998;SDS011;51319;52.162;5.302;2022-11-15T14:43:58;5.40;;;1.45;;
43998;SDS011;51319;52.162;5.302;2022-11-15T14:46:34;6.63;;;2.10;;
43998;SDS011;51319;52.162;5.302;2022-11-15T14:49:01;10.07;;;1.73;;
43998;SDS011;51319;52.162;5.302;2022-11-15T14:51:34;8.77;;;2.13;;
43998;SDS011;51319;52.162;5.302;2022-11-15T14:54:01;6.97;;;1.50;;
43998;SDS011;51319;52.162;5.302;2022-11-15T14:56:31;9.52;;;1.25;;
43998;SDS011;51319;52.162;5.302;2022-11-15T14:58:58;8.70;;;1.60;;
43998;SDS011;51319;52.162;5.302;2022-11-15T15:01:26;3.40;;;1.45;;
43998;SDS011;51319;52.162;5.302;2022-11-15T15:03:53;7.32;;;1.60;;
43998;SDS011;51319;52.162;5.302;2022-11-15T15:06:23;5.32;;;1.35;;
43998;SDS011;51319;52.162;5.302;2022-11-15T15:08:50;9.77;;;4.45;;
43998;SDS011;51319;52.162;5.302;2022-11-15T15:11:24;9.02;;;2.10;;
43998;SDS011;51319;52.162;5.302;2022-11-15T15:13:52;5.20;;;1.70;;
43998;SDS011;51319;52.162;5.302;2022-11-15T15:16:23;9.70;;;1.80;;
43998;SDS011;51319;52.162;5.302;2022-11-15T15:18:50;9.57;;;0.98;;
43998;SDS011;51319;52.162;5.302;2022-11-15T15:21:22;5.75;;;1.73;;
43998;SDS011;51319;52.162;5.302;2022-11-15T15:24:01;6.55;;;1.27;;
43998;SDS011;51319;52.162;5.302;2022-11-15T15:26:29;6.47;;;1.67;;
43998;SDS011;51319;52.162;5.302;2022-11-15T15:29:03;6.43;;;1.17;;
43998;SDS011;51319;52.162;5.302;2022-11-15T15:31:29;6.57;;;1.70;;
43998;SDS011;51319;52.162;5.302;2022-11-15T15:33:56;7.15;;;1.45;;
43998;SDS011;51319;52.162;5.302;2022-11-15T15:36:23;7.30;;;1.17;;
43998;SDS011;51319;52.162;5.302;2022-11-15T15:38:50;5.80;;;1.67;;
43998;SDS011;51319;52.162;5.302;2022-11-15T15:41:17;2.80;;;1.50;;
43998;SDS011;51319;52.162;5.302;2022-11-15T15:43:44;4.45;;;1.10;;
43998;SDS011;51319;52.162;5.302;2022-11-15T15:46:11;4.70;;;2.40;;
43998;SDS011;51319;52.162;5.302;2022-11-15T15:48:41;5.93;;;1.23;;
43998;SDS011;51319;52.162;5.302;2022-11-15T15:51:11;5.35;;;1.00;;
43998;SDS011;51319;52.162;5.302;2022-11-15T15:53:55;4.63;;;2.03;;
43998;SDS011;51319;52.162;5.302;2022-11-15T15:56:23;7.78;;;1.58;;
43998;SDS011;51319;52.162;5.302;2022-11-15T15:58:50;6.28;;;1.23;;
43998;SDS011;51319;52.162;5.302;2022-11-15T16:01:18;42.97;;;23.52;;
43998;SDS011;51319;52.162;5.302;2022-11-15T16:03:45;3.88;;;1.00;;
43998;SDS011;51319;52.162;5.302;2022-11-15T16:09:08;6.75;;;3.85;;
43998;SDS011;51319;52.162;5.302;2022-11-15T16:11:43;4.60;;;3.03;;
43998;SDS011;51319;52.162;5.302;2022-11-15T16:14:11;2.78;;;1.02;;
43998;SDS011;51319;52.162;5.302;2022-11-15T16:16:38;7.03;;;2.40;;
43998;SDS011;51319;52.162;5.302;2022-11-15T16:19:07;4.50;;;1.27;;
43998;SDS011;51319;52.162;5.302;2022-11-15T16:21:39;8.35;;;1.15;;
43998;SDS011;51319;52.162;5.302;2022-11-15T16:24:06;6.22;;;1.20;;
43998;SDS011;51319;52.162;5.302;2022-11-15T16:26:33;2.63;;;1.27;;
43998;SDS011;51319;52.162;5.302;2022-11-15T16:29:01;5.68;;;1.40;;
43998;SDS011;51319;52.162;5.302;2022-11-15T16:31:28;6.18;;;1.58;;
43998;SDS011;51319;52.162;5.302;2022-11-15T16:33:55;5.63;;;1.45;;
43998;SDS011;51319;52.162;5.302;2022-11-15T16:36:23;5.13;;;1.35;;
43998;SDS011;51319;52.162;5.302;2022-11-15T16:38:56;3.22;;;1.42;;
43998;SDS011;51319;52.162;5.302;2022-11-15T16:41:26;3.67;;;1.52;;
43998;SDS011;51319;52.162;5.302;2022-11-15T16:43:53;4.50;;;1.58;;
43998;SDS011;51319;52.162;5.302;2022-11-15T16:46:21;2.20;;;1.27;;
43998;SDS011;51319;52.162;5.302;2022-11-15T16:48:50;8.77;;;1.30;;
43998;SDS011;51319;52.162;5.302;2022-11-15T16:51:17;7.30;;;1.90;;
43998;SDS011;51319;52.162;5.302;2022-11-15T16:53:44;5.00;;;1.42;;
43998;SDS011;51319;52.162;5.302;2022-11-15T16:56:22;5.00;;;1.70;;
43998;SDS011;51319;52.162;5.302;2022-11-15T16:58:55;3.05;;;1.40;;
43998;SDS011;51319;52.162;5.302;2022-11-15T17:01:32;3.97;;;1.20;;
43998;SDS011;51319;52.162;5.302;2022-11-15T17:04:02;4.00;;;1.15;;
43998;SDS011;51319;52.162;5.302;2022-11-15T17:06:40;7.05;;;2.00;;
43998;SDS011;51319;52.162;5.302;2022-11-15T17:09:17;4.72;;;1.30;;
43998;SDS011;51319;52.162;5.302;2022-11-15T17:11:45;4.85;;;1.40;;
43998;SDS011;51319;52.162;5.302;2022-11-15T17:14:12;8.35;;;1.38;;